Vowinckel, Pennsylvania
Current Conditions -  °F | °C
As of 12:33 AM on Friday 28 Nov 2014 (Local Time) from KDUJ Reporting Station
Overcast Overcast  
Wind Chill: 15°   Ceiling: 2100
Heat Index: 26°   Visibility: 10mi
Dew Point: 21°   Wind: 13mph
Humidity: 81%   Direction: 290°WNW
Pressure: 30.09"   Gusts: 23mph
Location:  41.41°N, 79.23°W
Report Text: KDUJ 280533Z AUTO 29011G20KT 10SM FEW011 SCT016 OVC021 M03/M06 A3009 RMK AO2 T10331061
Loading
Personal Weather Stations






























Interactive Weather Map New forecast layout! Learn more

10-Day Weather Forecast

Advertisements
Track Severe Weather on mobile